createdAt,value
2018-05-09T06:55:36.197Z,23.50
2018-05-09T06:58:03.653Z,23.40
2018-05-09T07:00:31.319Z,23.50
2018-05-09T07:02:58.758Z,23.80
2018-05-09T07:05:26.240Z,24.20
2018-05-09T07:07:53.700Z,24.30
2018-05-09T07:10:21.247Z,24.70
2018-05-09T07:12:48.724Z,24.40
2018-05-09T07:15:16.176Z,24.50
2018-05-09T07:17:43.731Z,24.70
2018-05-09T07:20:11.279Z,24.90
2018-05-09T07:22:38.951Z,25.00
2018-05-09T07:25:06.395Z,25.10
2018-05-09T07:27:33.871Z,25.30
2018-05-09T07:30:01.372Z,25.10
2018-05-09T07:32:28.859Z,25.00
2018-05-09T07:34:56.414Z,25.00
2018-05-09T07:37:23.966Z,25.20
2018-05-09T07:39:54.989Z,25.50
2018-05-09T07:42:22.470Z,25.40
2018-05-09T07:44:49.935Z,25.60
2018-05-09T07:47:17.488Z,25.80
2018-05-09T07:49:45.339Z,25.80
2018-05-09T07:52:12.831Z,25.80
2018-05-09T07:54:41.063Z,25.80
2018-05-09T07:57:08.631Z,25.80
2018-05-09T07:59:36.121Z,25.80
2018-05-09T08:02:04.368Z,26.60
2018-05-09T08:04:31.813Z,26.50
2018-05-09T08:06:59.271Z,26.50
2018-05-09T08:09:27.753Z,26.70
2018-05-09T08:11:55.242Z,26.80
2018-05-09T08:14:23.542Z,26.90
2018-05-09T08:16:51.888Z,26.90
2018-05-09T08:19:19.428Z,26.90
2018-05-09T08:21:46.973Z,26.90
2018-05-09T08:24:14.429Z,27.00
2018-05-09T08:26:41.978Z,26.90
2018-05-09T08:29:09.437Z,26.90
2018-05-09T08:31:36.897Z,27.20
2018-05-09T08:34:04.454Z,27.70
2018-05-09T08:36:31.995Z,27.60
2018-05-09T08:38:59.361Z,28.00
2018-05-09T08:41:26.974Z,28.10
2018-05-09T08:43:55.281Z,28.10
2018-05-09T08:46:22.647Z,28.00
2018-05-09T08:48:50.104Z,28.00
2018-05-09T08:51:17.567Z,28.40
2018-05-09T08:53:45.123Z,28.20
2018-05-09T08:56:12.591Z,28.20
2018-05-09T08:58:40.117Z,28.10
2018-05-09T09:01:07.594Z,28.20
2018-05-09T09:03:36.027Z,28.50
2018-05-09T09:06:03.538Z,28.50
2018-05-09T09:08:30.999Z,28.70
2018-05-09T09:10:58.621Z,28.50
2018-05-09T09:13:26.069Z,27.90
2018-05-09T09:15:53.662Z,28.00
2018-05-09T09:18:21.223Z,28.30
2018-05-09T09:20:48.699Z,28.40
2018-05-09T09:23:16.151Z,28.50
2018-05-09T09:25:43.608Z,28.50
2018-05-09T09:28:11.134Z,29.00
2018-05-09T09:30:38.690Z,29.20
2018-05-09T09:33:06.138Z,29.00
2018-05-09T09:35:33.591Z,29.10
2018-05-09T09:38:01.071Z,29.40
2018-05-09T09:40:28.624Z,29.50
2018-05-09T09:42:56.198Z,29.10
2018-05-09T09:45:25.150Z,29.50
2018-05-09T09:47:52.614Z,29.50
2018-05-09T09:50:20.068Z,29.40
2018-05-09T09:52:48.570Z,29.60
2018-05-09T09:55:16.032Z,29.90
2018-05-09T09:57:43.474Z,29.90
2018-05-09T10:00:10.939Z,30.10
2018-05-09T10:02:38.384Z,29.20
2018-05-09T10:05:05.939Z,29.40
2018-05-09T10:07:33.386Z,29.50
2018-05-09T10:10:01.122Z,29.50
2018-05-09T10:12:28.775Z,29.50
2018-05-09T10:14:56.292Z,29.90
2018-05-09T10:17:23.854Z,29.90
2018-05-09T10:19:52.103Z,30.20
2018-05-09T10:22:19.978Z,30.20
2018-05-09T10:24:47.431Z,30.10
2018-05-09T10:27:14.999Z,30.30
2018-05-09T10:29:42.464Z,30.90
2018-05-09T10:32:10.862Z,31.10
2018-05-09T10:34:38.317Z,31.30
2018-05-09T10:37:06.586Z,31.00
2018-05-09T10:39:34.831Z,30.60
2018-05-09T10:42:03.109Z,30.40
2018-05-09T10:44:30.547Z,30.40
2018-05-09T10:46:58.014Z,30.70
2018-05-09T10:49:25.563Z,30.20
2018-05-09T10:51:53.115Z,30.40
2018-05-09T10:54:20.569Z,30.30
2018-05-09T10:56:48.194Z,30.50
2018-05-09T10:59:15.635Z,30.70
2018-05-09T11:01:43.147Z,30.50
2018-05-09T11:04:11.786Z,30.40
2018-05-09T11:06:40.206Z,30.30
2018-05-09T11:09:11.247Z,30.30
2018-05-09T11:11:38.889Z,30.20
2018-05-09T11:14:06.380Z,30.20
2018-05-09T11:16:33.843Z,30.40
2018-05-09T11:19:04.420Z,30.20
2018-05-09T11:21:31.875Z,30.60
2018-05-09T11:23:59.326Z,31.30
2018-05-09T11:26:26.849Z,31.30
2018-05-09T11:28:55.182Z,31.30
2018-05-09T11:31:22.634Z,31.30
2018-05-09T11:33:51.083Z,30.90
2018-05-09T11:36:18.607Z,30.90
2018-05-09T11:38:46.820Z,31.00
2018-05-09T11:41:14.292Z,31.00
2018-05-09T11:43:42.806Z,31.00
2018-05-09T11:46:10.379Z,31.00
2018-05-09T11:48:37.839Z,31.00
2018-05-09T11:51:06.049Z,30.70
2018-05-09T11:53:34.186Z,30.70
2018-05-09T11:56:02.394Z,30.20
2018-05-09T11:58:29.854Z,30.20
2018-05-09T12:00:57.327Z,30.10
2018-05-09T12:03:25.848Z,30.40
2018-05-09T12:05:54.058Z,29.00
2018-05-09T12:08:21.714Z,28.90
2018-05-09T12:10:49.280Z,29.20
2018-05-09T12:13:16.778Z,30.00
2018-05-09T12:15:44.301Z,29.90
2018-05-09T12:18:11.823Z,30.20
2018-05-09T12:20:39.291Z,30.10
2018-05-09T12:23:06.788Z,30.20
2018-05-09T12:25:34.290Z,30.50
2018-05-09T12:28:01.759Z,30.20
2018-05-09T12:30:31.191Z,30.50
2018-05-09T12:32:59.672Z,30.60
2018-05-09T12:35:27.141Z,30.80
2018-05-09T12:37:54.683Z,30.50
2018-05-09T12:40:22.244Z,30.80
2018-05-09T12:42:49.700Z,30.30
2018-05-09T12:45:18.083Z,30.00
2018-05-09T12:47:45.701Z,29.70
2018-05-09T12:50:13.152Z,30.00
2018-05-09T12:52:40.718Z,30.30
2018-05-09T12:55:09.148Z,30.70
2018-05-09T12:57:37.508Z,31.30
2018-05-09T13:00:04.994Z,31.30
2018-05-09T13:02:32.825Z,31.30
2018-05-09T13:05:00.275Z,31.60
2018-05-09T13:07:27.906Z,31.80
2018-05-09T13:09:55.390Z,32.00
2018-05-09T13:12:22.850Z,31.80
2018-05-09T13:14:50.300Z,31.90
2018-05-09T13:17:17.852Z,31.80
2018-05-09T13:19:45.550Z,32.10
2018-05-09T13:22:13.073Z,31.80
2018-05-09T13:24:40.550Z,30.90
2018-05-09T13:27:08.236Z,30.60
2018-05-09T13:29:36.487Z,29.50
2018-05-09T13:32:06.037Z,29.40
2018-05-09T13:34:34.540Z,29.30
2018-05-09T13:37:02.016Z,29.20
2018-05-09T13:39:29.566Z,29.10
2018-05-09T13:41:57.034Z,28.80
2018-05-09T13:44:25.302Z,29.20
2018-05-09T13:46:53.158Z,29.20
2018-05-09T13:49:22.510Z,29.20
2018-05-09T13:51:49.969Z,29.10
2018-05-09T13:54:17.448Z,29.20
2018-05-09T13:56:45.274Z,29.50
2018-05-09T13:59:13.575Z,29.80
2018-05-09T14:01:41.077Z,29.80
2018-05-09T14:04:12.846Z,30.00
2018-05-09T14:06:43.506Z,30.40
2018-05-09T14:09:10.967Z,30.30
2018-05-09T14:11:38.407Z,30.20
2018-05-09T14:14:07.605Z,30.30
2018-05-09T14:16:35.061Z,30.30
2018-05-09T14:19:02.519Z,30.70
2018-05-09T14:21:30.001Z,30.90
2018-05-09T14:23:57.442Z,31.00
2018-05-09T14:26:25.871Z,31.10
2018-05-09T14:28:54.340Z,31.00
2018-05-09T14:31:22.228Z,31.10
2018-05-09T14:33:50.046Z,30.90
2018-05-09T14:36:17.499Z,30.80
2018-05-09T14:38:44.992Z,30.60
2018-05-09T14:41:13.199Z,31.20
2018-05-09T14:43:41.033Z,31.20
2018-05-09T14:46:09.485Z,31.30
2018-05-09T14:48:36.930Z,31.70
2018-05-09T14:51:05.322Z,31.70
2018-05-09T14:53:32.779Z,31.90
2018-05-09T14:56:00.236Z,31.90
2018-05-09T14:58:27.685Z,31.40
2018-05-09T15:00:57.058Z,31.30
2018-05-09T15:03:24.909Z,31.10
2018-05-09T15:05:52.425Z,30.50
2018-05-09T15:08:19.874Z,30.20
2018-05-09T15:10:47.357Z,29.90
2018-05-09T15:13:15.570Z,29.10
2018-05-09T15:15:43.028Z,29.10
2018-05-09T15:18:10.476Z,28.80
2018-05-09T15:20:38.850Z,28.60
2018-05-09T15:23:06.348Z,28.50
2018-05-09T15:25:33.892Z,28.50
2018-05-09T15:28:01.363Z,28.40
2018-05-09T15:30:30.960Z,28.20
2018-05-09T15:32:59.739Z,28.10
2018-05-09T15:35:27.221Z,28.10
2018-05-09T15:37:54.660Z,28.20
2018-05-09T15:40:32.862Z,28.30
2018-05-09T15:43:00.422Z,28.10
2018-05-09T15:45:31.330Z,28.10
2018-05-09T15:47:58.803Z,28.10
2018-05-09T15:50:26.259Z,28.00
2018-05-09T15:52:53.735Z,28.00
2018-05-09T15:55:21.192Z,27.80
2018-05-09T15:57:48.760Z,27.70
2018-05-09T16:00:16.403Z,27.70
2018-05-09T16:02:43.852Z,27.80
2018-05-09T16:05:11.308Z,27.60
2018-05-09T16:07:39.045Z,27.70
2018-05-09T16:10:06.545Z,27.80
2018-05-09T16:12:34.095Z,28.00
2018-05-09T16:15:01.646Z,28.00
2018-05-09T16:17:29.082Z,28.10
2018-05-09T16:19:57.591Z,28.30
2018-05-09T16:22:25.093Z,28.30
2018-05-09T16:24:52.607Z,28.40
2018-05-09T16:27:20.160Z,28.40
2018-05-09T16:29:49.647Z,28.30
2018-05-09T16:32:18.142Z,28.10
2018-05-09T16:34:45.586Z,28.10
2018-05-09T16:37:13.406Z,28.00
2018-05-09T16:39:40.879Z,28.00
2018-05-09T16:42:08.696Z,27.80
2018-05-09T16:44:37.097Z,27.70
2018-05-09T16:47:04.601Z,27.70
2018-05-09T16:49:32.603Z,27.60
2018-05-09T16:52:00.029Z,27.60
2018-05-09T16:54:27.496Z,27.50
2018-05-09T16:56:54.950Z,27.50
2018-05-09T16:59:23.388Z,27.30
2018-05-09T17:01:50.878Z,27.10
2018-05-09T17:04:18.347Z,26.90
2018-05-09T17:06:46.820Z,26.80
2018-05-09T17:09:14.293Z,26.60
2018-05-09T17:11:42.539Z,26.40
2018-05-09T17:14:09.997Z,26.30
2018-05-09T17:16:37.774Z,26.30
2018-05-09T17:19:05.335Z,26.10
2018-05-09T17:21:45.597Z,26.00
2018-05-09T17:24:13.828Z,25.90
2018-05-09T17:26:41.271Z,25.90
2018-05-09T17:29:08.860Z,25.80
2018-05-09T17:31:36.320Z,25.70
2018-05-09T17:34:03.769Z,25.60
2018-05-09T17:36:31.229Z,25.60
2018-05-09T17:38:58.661Z,25.50
2018-05-09T17:41:26.145Z,25.40
2018-05-09T17:43:53.578Z,25.40
2018-05-09T17:46:21.162Z,25.30
2018-05-09T17:48:49.569Z,25.10
2018-05-09T17:51:18.766Z,25.00
2018-05-09T17:53:46.282Z,24.90
2018-05-09T17:56:13.740Z,24.80
2018-05-09T17:58:42.264Z,24.90
2018-05-09T18:01:09.681Z,24.80
2018-05-09T18:03:37.159Z,24.70
2018-05-09T18:06:05.368Z,24.60
2018-05-09T18:08:34.746Z,24.50
2018-05-09T18:11:02.223Z,24.40
2018-05-09T18:13:29.659Z,24.40
2018-05-09T18:15:57.131Z,24.30
2018-05-09T18:18:24.575Z,24.20
2018-05-09T18:20:52.018Z,24.10
2018-05-09T18:23:19.486Z,23.90
2018-05-09T18:25:46.959Z,23.80
2018-05-09T18:28:14.437Z,23.60
2018-05-09T18:30:41.893Z,23.50
2018-05-09T18:33:09.345Z,23.30
2018-05-09T18:35:36.905Z,23.10
2018-05-09T18:38:04.360Z,23.00
2018-05-09T18:40:31.812Z,22.90
2018-05-09T18:42:59.311Z,22.80
2018-05-09T18:45:27.525Z,22.50
2018-05-09T18:47:55.328Z,22.40
2018-05-09T18:50:22.775Z,22.30
2018-05-09T18:52:50.232Z,22.10
2018-05-09T18:55:17.777Z,22.00
2018-05-09T18:57:45.234Z,21.90
2018-05-09T19:00:12.793Z,21.80
2018-05-09T19:02:40.237Z,21.70
2018-05-09T19:05:07.713Z,21.60
2018-05-09T19:07:37.098Z,21.60
2018-05-09T19:10:04.545Z,21.60
2018-05-09T19:12:32.006Z,21.50
2018-05-09T19:14:59.472Z,21.50
2018-05-09T19:17:27.253Z,21.60
2018-05-09T19:19:54.688Z,21.60
2018-05-09T19:22:24.161Z,21.60
2018-05-09T19:24:51.649Z,21.60
2018-05-09T19:27:20.125Z,21.60
2018-05-09T19:29:47.690Z,21.60
2018-05-09T19:32:15.426Z,21.70
2018-05-09T19:34:42.909Z,21.70
2018-05-09T19:37:10.475Z,21.70
2018-05-09T19:39:38.022Z,21.60
2018-05-09T19:42:05.797Z,21.50
2018-05-09T19:44:36.268Z,21.50
2018-05-09T19:47:03.723Z,21.40
2018-05-09T19:49:31.186Z,21.40
2018-05-09T19:51:58.645Z,21.40
2018-05-09T19:54:26.182Z,21.50
2018-05-09T19:56:54.437Z,21.60
2018-05-09T19:59:21.958Z,21.60
2018-05-09T20:01:50.074Z,21.60
2018-05-09T20:04:18.646Z,21.40
2018-05-09T20:06:46.928Z,21.30
2018-05-09T20:09:16.138Z,21.30
2018-05-09T20:11:43.611Z,21.30
2018-05-09T20:14:11.098Z,21.30
2018-05-09T20:16:38.710Z,21.20
2018-05-09T20:19:06.931Z,21.10
2018-05-09T20:21:34.391Z,21.10
2018-05-09T20:24:01.932Z,21.10
2018-05-09T20:26:29.410Z,21.00
2018-05-09T20:29:02.008Z,21.00
2018-05-09T20:31:47.115Z,20.90
2018-05-09T20:34:17.806Z,20.90
2018-05-09T20:36:46.040Z,20.90
2018-05-09T20:39:14.431Z,20.80
2018-05-09T20:41:42.111Z,20.80
2018-05-09T20:44:09.649Z,20.80
2018-05-09T20:46:37.219Z,20.80
2018-05-09T20:49:04.675Z,20.70
2018-05-09T20:51:44.144Z,20.50
2018-05-09T20:54:12.409Z,20.50
2018-05-09T20:56:40.638Z,20.40
2018-05-09T20:59:08.122Z,20.40
2018-05-09T21:01:47.655Z,20.20
2018-05-09T21:04:15.218Z,20.20
2018-05-09T21:06:42.765Z,20.10
